Time;durP1;ratioP1;P1;durP2;ratioP2;P2;SDS_P1;SDS_P2;PMS_P1;PMS_P2;Temp;Humidity;BMP_temperature;BMP_pressure;BME280_temperature;BME280_humidity;BME280_pressure;Samples;Min_cycle;Max_cycle;Signal;HPM_P1;HPM_P2
2023/07/26 00:01:57;;;;;;;3.42;1.70;;;;;;;15.98;100.00;95773.09;5037002;28;20227;-69
2023/07/26 00:04:23;;;;;;;2.50;1.73;;;;;;;15.95;100.00;95786.84;5036749;28;20924;-69
2023/07/26 00:06:50;;;;;;;1.38;0.95;;;;;;;15.88;100.00;95778.13;5036269;28;20598;-69
2023/07/26 00:09:16;;;;;;;3.00;1.40;;;;;;;15.82;100.00;95782.69;5036365;28;20216;-69
2023/07/26 00:11:43;;;;;;;3.47;1.60;;;;;;;15.83;100.00;95785.13;5036428;28;21346;-69
2023/07/26 00:14:11;;;;;;;3.95;1.70;;;;;;;16.11;100.00;95782.78;5036682;28;20609;-68
2023/07/26 00:16:37;;;;;;;3.90;2.03;;;;;;;15.81;100.00;95791.69;5036733;28;20209;-69
2023/07/26 00:19:04;;;;;;;3.65;1.88;;;;;;;15.98;100.00;95791.69;5036193;28;20201;-68
2023/07/26 00:21:30;;;;;;;3.78;1.77;;;;;;;15.98;100.00;95791.69;5036650;28;20871;-69
2023/07/26 00:23:58;;;;;;;3.88;1.95;;;;;;;15.96;100.00;95785.81;5036719;28;20616;-69
2023/07/26 00:26:25;;;;;;;3.55;2.05;;;;;;;15.94;100.00;95797.69;5036239;28;20259;-68
2023/07/26 00:28:51;;;;;;;4.38;2.25;;;;;;;15.85;100.00;95802.47;5043390;28;20200;-69
2023/07/26 00:31:19;;;;;;;6.18;2.28;;;;;;;16.23;100.00;95800.44;5036410;28;20217;-69
2023/07/26 00:33:46;;;;;;;2.90;1.58;;;;;;;16.03;100.00;95791.84;5040015;28;20228;-69
2023/07/26 00:36:12;;;;;;;7.07;2.58;;;;;;;15.97;100.00;95807.88;5040439;28;20208;-69
2023/07/26 00:38:39;;;;;;;4.32;2.70;;;;;;;15.88;100.00;95798.56;5039462;28;20209;-69
2023/07/26 00:41:06;;;;;;;4.50;2.65;;;;;;;15.80;100.00;95801.50;5040348;28;20221;-69
2023/07/26 00:43:33;;;;;;;6.55;2.95;;;;;;;15.85;100.00;95802.47;5040423;28;20201;-69
2023/07/26 00:45:59;;;;;;;4.45;2.13;;;;;;;15.73;100.00;95810.56;5039349;28;20208;-68
2023/07/26 00:48:27;;;;;;;3.42;2.28;;;;;;;15.93;100.00;95807.50;5039710;28;20741;-69
2023/07/26 00:50:54;;;;;;;5.22;2.88;;;;;;;15.96;100.00;95809.72;5040546;28;20225;-69
2023/07/26 00:53:21;;;;;;;8.65;3.47;;;;;;;15.75;100.00;95813.84;5040019;28;20288;-69
2023/07/26 00:55:49;;;;;;;7.40;3.42;;;;;;;15.79;100.00;95809.72;5039963;28;20220;-69
2023/07/26 00:58:16;;;;;;;10.05;3.97;;;;;;;15.96;100.00;95803.59;5039302;28;20232;-69
2023/07/26 01:00:44;;;;;;;5.82;2.70;;;;;;;16.30;100.00;95811.81;5039734;28;20221;-68
2023/07/26 01:03:11;;;;;;;8.70;3.60;;;;;;;16.12;100.00;95817.13;5040120;28;20224;-69
2023/07/26 01:05:48;;;;;;;6.57;3.55;;;;;;;16.43;100.00;95814.31;5039868;28;20216;-69
2023/07/26 01:08:22;;;;;;;6.90;4.35;;;;;;;16.44;100.00;95821.28;5039425;28;20209;-69
2023/07/26 01:10:54;;;;;;;7.30;2.97;;;;;;;16.39;100.00;95815.81;5039621;28;20237;-69
2023/07/26 01:13:26;;;;;;;5.03;2.53;;;;;;;16.26;100.00;95813.31;5041045;28;20311;-69
2023/07/26 01:15:53;;;;;;;10.52;4.80;;;;;;;16.00;100.00;95812.78;5039669;28;20201;-68
2023/07/26 01:18:20;;;;;;;6.20;3.28;;;;;;;15.89;100.00;95814.28;5038665;28;20237;-68
2023/07/26 01:20:47;;;;;;;8.50;3.85;;;;;;;16.07;100.00;95808.97;5039651;28;20228;-69
2023/07/26 01:23:15;;;;;;;7.82;4.07;;;;;;;15.94;100.00;95814.44;5039860;28;20216;-68
2023/07/26 01:25:42;;;;;;;7.30;3.53;;;;;;;15.79;100.00;95823.00;5039979;28;20209;-69
2023/07/26 01:28:08;;;;;;;7.90;2.95;;;;;;;15.53;100.00;95816.06;5038563;28;20212;-68
2023/07/26 01:30:36;;;;;;;8.57;4.28;;;;;;;15.79;100.00;95823.00;5039032;28;20233;-69
2023/07/26 01:33:05;;;;;;;7.82;3.47;;;;;;;15.50;100.00;95815.69;5046505;28;20201;-68
2023/07/26 01:35:33;;;;;;;10.57;5.00;;;;;;;15.25;100.00;95828.13;5039878;28;20205;-69
2023/07/26 01:38:00;;;;;;;9.50;4.35;;;;;;;15.56;100.00;95825.44;5038563;28;20217;-68
2023/07/26 01:40:28;;;;;;;7.82;4.22;;;;;;;15.70;100.00;95822.44;5039067;28;21205;-68
2023/07/26 01:42:56;;;;;;;11.63;4.40;;;;;;;15.69;100.00;95820.00;5039173;28;20221;-69
2023/07/26 01:45:23;;;;;;;8.63;4.60;;;;;;;15.49;100.00;95824.66;5039339;28;20652;-68
2023/07/26 01:47:50;;;;;;;7.20;3.65;;;;;;;15.83;100.00;95824.19;5038128;28;20669;-69
2023/07/26 01:50:16;;;;;;;7.60;4.18;;;;;;;15.73;100.00;95821.19;5039006;28;20229;-68
2023/07/26 01:52:43;;;;;;;7.70;3.88;;;;;;;15.52;100.00;95825.06;5046392;28;20304;-68
2023/07/26 01:55:09;;;;;;;7.00;3.38;;;;;;;15.63;100.00;95829.66;5039295;28;20229;-69
2023/07/26 01:57:37;;;;;;;11.48;4.30;;;;;;;15.90;100.00;95826.53;5037976;28;20216;-68
2023/07/26 02:00:05;;;;;;;10.48;5.45;;;;;;;15.74;100.00;95830.81;5038491;28;20224;-68
2023/07/26 02:02:31;;;;;;;13.27;5.97;;;;;;;15.65;100.00;95830.25;5038443;28;20764;-68
2023/07/26 02:04:58;;;;;;;9.98;4.32;;;;;;;15.61;100.00;95834.38;5039009;28;20205;-68
2023/07/26 02:07:24;;;;;;;10.77;4.53;;;;;;;15.53;100.00;95836.47;5037671;28;20207;-68
2023/07/26 02:09:51;;;;;;;9.85;5.30;;;;;;;15.60;100.00;95842.56;5038332;28;20212;-68
2023/07/26 02:12:17;;;;;;;8.13;3.80;;;;;;;15.67;100.00;95849.44;5038681;28;20224;-67
2023/07/26 02:14:45;;;;;;;9.70;4.43;;;;;;;15.85;100.00;95844.97;5038455;28;20609;-68
2023/07/26 02:17:12;;;;;;;11.88;5.35;;;;;;;15.74;100.00;95850.19;5037867;28;20201;-68
2023/07/26 02:19:38;;;;;;;11.13;5.05;;;;;;;15.71;100.00;95849.84;5038640;28;20209;-68
2023/07/26 02:22:05;;;;;;;6.15;3.15;;;;;;;15.74;100.00;95854.72;5038368;28;20683;-67
2023/07/26 02:24:33;;;;;;;8.88;4.97;;;;;;;15.62;100.00;95865.22;5037837;28;20201;-67
2023/07/26 02:27:00;;;;;;;12.02;3.90;;;;;;;15.57;100.00;95872.22;5038237;28;20670;-68
2023/07/26 02:29:27;;;;;;;8.30;3.33;;;;;;;15.48;100.00;95865.56;5038330;28;20248;-68
2023/07/26 02:31:54;;;;;;;9.65;4.82;;;;;;;15.86;100.00;95859.91;5037957;28;20228;-68
2023/07/26 02:34:21;;;;;;;6.68;3.92;;;;;;;15.51;100.00;95876.53;5038450;28;20417;-68
2023/07/26 02:36:48;;;;;;;6.65;3.40;;;;;;;15.43;100.00;95878.66;5046569;28;20208;-67
2023/07/26 02:39:14;;;;;;;12.77;4.47;;;;;;;15.51;100.00;95883.69;5037897;28;20254;-67
2023/07/26 02:41:41;;;;;;;9.55;3.65;;;;;;;15.41;100.00;95880.69;5046814;28;20243;-68
2023/07/26 02:44:07;;;;;;;7.82;3.90;;;;;;;15.59;100.00;95889.56;5057117;28;20209;-68
2023/07/26 02:46:33;;;;;;;9.77;4.50;;;;;;;15.61;100.00;95882.19;5053787;28;20209;-67
2023/07/26 02:49:01;;;;;;;12.77;4.90;;;;;;;15.82;100.00;95887.09;5037600;28;20211;-68
2023/07/26 02:51:28;;;;;;;9.57;4.43;;;;;;;15.70;100.00;95890.72;5038262;28;20221;-68
2023/07/26 02:53:54;;;;;;;10.05;5.50;;;;;;;15.65;100.00;95891.34;5037939;28;20213;-68
2023/07/26 02:56:21;;;;;;;5.90;3.45;;;;;;;15.71;100.00;95892.34;5042871;28;20681;-68
2023/07/26 02:58:47;;;;;;;12.52;4.43;;;;;;;15.84;100.00;95892.22;5055788;28;20200;-67
2023/07/26 03:01:14;;;;;;;9.25;4.43;;;;;;;15.85;100.00;95894.66;5056077;28;20592;-68
2023/07/26 03:03:42;;;;;;;6.65;3.63;;;;;;;15.81;100.00;95908.59;5056375;28;20323;-67
2023/07/26 03:06:10;;;;;;;7.45;3.97;;;;;;;16.01;100.00;95900.25;5056599;28;20204;-68
2023/07/26 03:08:37;;;;;;;6.93;3.78;;;;;;;15.84;100.00;95908.16;5055760;28;20215;-68
2023/07/26 03:11:03;;;;;;;7.45;3.30;;;;;;;15.75;100.00;95912.13;5055990;28;20228;-68
2023/07/26 03:13:30;;;;;;;7.65;4.03;;;;;;;15.83;100.00;95904.69;5053262;28;20216;-68
2023/07/26 03:15:56;;;;;;;12.43;3.17;;;;;;;15.75;100.00;95909.47;5055875;28;20204;-68
2023/07/26 03:18:22;;;;;;;9.10;3.83;;;;;;;15.74;100.00;95915.81;5055512;28;20208;-68
2023/07/26 03:20:49;;;;;;;9.10;4.40;;;;;;;15.83;100.00;95910.00;5048133;28;20939;-68
2023/07/26 03:23:17;;;;;;;10.70;4.90;;;;;;;15.82;100.00;95920.84;5050271;28;20201;-68
2023/07/26 03:25:43;;;;;;;7.85;4.28;;;;;;;15.54;100.00;95923.94;5055523;28;20290;-68
2023/07/26 03:28:10;;;;;;;6.63;3.88;;;;;;;15.60;100.00;95927.56;5055926;28;20211;-68
2023/07/26 03:30:36;;;;;;;10.95;3.92;;;;;;;15.63;100.00;95919.16;5053028;28;20228;-67
2023/07/26 03:33:03;;;;;;;10.40;3.60;;;;;;;15.55;100.00;95919.41;5055612;28;20200;-68
2023/07/26 03:35:30;;;;;;;10.45;4.60;;;;;;;15.52;100.00;95935.78;5056010;28;20232;-67
2023/07/26 03:37:56;;;;;;;5.85;3.70;;;;;;;15.64;100.00;95928.75;5055106;28;20684;-68
2023/07/26 03:40:24;;;;;;;6.75;3.47;;;;;;;15.85;100.00;95927.34;5056299;28;20221;-67
2023/07/26 03:42:50;;;;;;;12.55;5.05;;;;;;;15.55;100.00;95938.00;5055570;28;20223;-68
2023/07/26 03:45:17;;;;;;;8.20;4.20;;;;;;;15.61;100.00;95940.63;5056566;28;20202;-67
2023/07/26 03:47:44;;;;;;;8.77;4.10;;;;;;;15.44;100.00;95946.66;5054431;28;20204;-67
2023/07/26 03:50:11;;;;;;;8.93;4.03;;;;;;;15.76;100.00;95942.94;5056022;28;20225;-68
2023/07/26 03:52:37;;;;;;;10.27;4.60;;;;;;;15.73;100.00;95948.72;5055564;28;20220;-68
2023/07/26 03:55:04;;;;;;;9.63;4.85;;;;;;;15.67;100.00;95945.06;5055979;28;20226;-68
2023/07/26 03:57:32;;;;;;;9.68;4.43;;;;;;;15.73;100.00;95946.84;5050689;28;20204;-68
2023/07/26 03:59:58;;;;;;;8.68;4.40;;;;;;;15.62;100.00;95949.41;5055791;28;20209;-68
2023/07/26 04:02:25;;;;;;;8.75;4.22;;;;;;;15.56;100.00;95947.59;5055312;28;20205;-68
2023/07/26 04:04:51;;;;;;;7.70;4.07;;;;;;;15.68;100.00;95952.03;5048066;28;20203;-68
2023/07/26 04:07:18;;;;;;;12.73;5.07;;;;;;;15.79;100.00;95953.19;5048703;28;20212;-68
2023/07/26 04:09:44;;;;;;;7.95;3.95;;;;;;;15.84;100.00;95959.47;5054006;28;20200;-67
2023/07/26 04:12:11;;;;;;;8.60;4.28;;;;;;;15.83;100.00;95960.47;5055394;28;20208;-67
2023/07/26 04:14:38;;;;;;;9.02;4.47;;;;;;;16.04;100.00;95954.81;5054966;28;20235;-67
2023/07/26 04:17:05;;;;;;;9.68;4.93;;;;;;;15.85;100.00;95964.56;5054790;28;20764;-67
2023/07/26 04:19:31;;;;;;;9.50;5.05;;;;;;;15.72;100.00;95969.16;5055596;28;20223;-67
2023/07/26 04:21:58;;;;;;;7.32;3.78;;;;;;;15.79;100.00;95971.78;5047267;28;20225;-67
2023/07/26 04:24:25;;;;;;;11.27;4.95;;;;;;;15.84;100.00;95978.06;5055329;28;20200;-67
2023/07/26 04:26:52;;;;;;;6.70;3.60;;;;;;;15.78;100.00;95973.59;5050140;28;20209;-67
2023/07/26 04:29:19;;;;;;;7.70;3.58;;;;;;;15.66;100.00;95977.19;5042645;28;20220;-67
2023/07/26 04:31:46;;;;;;;8.52;4.53;;;;;;;15.95;100.00;95978.19;5047550;28;20228;-68
2023/07/26 04:34:14;;;;;;;6.10;3.38;;;;;;;15.51;100.00;95980.09;5045452;28;20231;-67
2023/07/26 04:36:41;;;;;;;26.45;4.88;;;;;;;15.81;100.00;95977.66;5045414;28;20204;-67
2023/07/26 04:39:07;;;;;;;12.95;4.60;;;;;;;15.89;100.00;95987.00;5045080;28;20299;-67
2023/07/26 04:41:34;;;;;;;7.88;4.03;;;;;;;15.75;100.00;95983.84;5051849;28;20235;-67
2023/07/26 04:44:01;;;;;;;8.80;3.13;;;;;;;15.68;100.00;95994.53;5046795;28;20287;-67
2023/07/26 04:46:27;;;;;;;6.57;3.42;;;;;;;15.73;100.00;95997.34;5055176;28;20295;-68
2023/07/26 04:48:55;;;;;;;7.07;4.18;;;;;;;16.01;100.00;95995.09;5055075;28;20205;-67
2023/07/26 04:51:23;;;;;;;6.05;3.00;;;;;;;15.97;100.00;95993.91;5054901;28;20704;-67
2023/07/26 04:53:50;;;;;;;6.38;2.90;;;;;;;15.84;100.00;95997.47;5054368;28;21115;-68
2023/07/26 04:56:16;;;;;;;6.70;3.88;;;;;;;15.95;100.00;95999.44;5055341;28;20231;-68
2023/07/26 04:58:43;;;;;;;5.47;3.03;;;;;;;16.03;100.00;96004.47;5054422;28;20208;-68
2023/07/26 05:01:09;;;;;;;5.72;2.85;;;;;;;16.22;100.00;96003.53;5054167;28;20712;-68
2023/07/26 05:03:38;;;;;;;6.25;2.83;;;;;;;16.04;100.00;96000.00;5051760;28;20208;-68
2023/07/26 05:06:06;;;;;;;5.57;3.20;;;;;;;16.32;100.00;96006.56;5055200;28;20287;-68
2023/07/26 05:08:33;;;;;;;6.63;3.58;;;;;;;16.06;100.00;96009.38;5054516;28;20235;-68
2023/07/26 05:11:00;;;;;;;5.57;3.00;;;;;;;16.25;100.00;96008.41;5054604;28;20258;-68
2023/07/26 05:13:26;;;;;;;7.38;3.05;;;;;;;16.19;100.00;96017.25;5042515;28;21135;-68
2023/07/26 05:15:53;;;;;;;6.70;3.15;;;;;;;16.30;100.00;96021.09;5040638;28;20229;-68
2023/07/26 05:18:19;;;;;;;6.78;2.92;;;;;;;16.30;100.00;96021.91;5043177;28;20215;-68
2023/07/26 05:20:49;;;;;;;3.15;2.20;;;;;;;16.11;100.00;96024.69;5046870;28;20221;-68
2023/07/26 05:23:17;;;;;;;5.78;2.72;;;;;;;16.46;100.00;96029.34;5058022;28;20204;-68
2023/07/26 05:25:43;;;;;;;5.63;2.70;;;;;;;16.34;100.00;96023.09;5049694;28;20207;-68
2023/07/26 05:28:10;;;;;;;3.55;2.25;;;;;;;16.27;100.00;96038.28;5055170;28;20208;-68
2023/07/26 05:30:38;;;;;;;4.55;2.50;;;;;;;16.37;100.00;96038.63;5057764;28;20224;-68
2023/07/26 05:33:04;;;;;;;7.47;2.55;;;;;;;16.22;100.00;96032.78;5058511;28;20544;-68
2023/07/26 05:35:31;;;;;;;4.47;2.90;;;;;;;16.35;100.00;96040.66;5058077;28;20235;-68
2023/07/26 05:37:57;;;;;;;5.45;2.45;;;;;;;16.25;100.00;96048.28;5057647;28;20204;-68
2023/07/26 05:40:25;;;;;;;4.40;2.70;;;;;;;16.51;100.00;96045.47;5055828;28;20220;-68
2023/07/26 05:42:52;;;;;;;2.15;1.63;;;;;;;15.92;100.00;96054.84;5058075;28;20212;-68
2023/07/26 05:45:18;;;;;;;8.07;2.63;;;;;;;15.96;100.00;96054.22;5056966;28;20197;-67
2023/07/26 05:47:45;;;;;;;9.85;2.80;;;;;;;15.90;100.00;96052.41;5053943;28;20204;-67
2023/07/26 05:50:11;;;;;;;4.28;2.33;;;;;;;15.66;100.00;96052.34;5049727;28;20229;-67
2023/07/26 05:52:38;;;;;;;4.07;2.10;;;;;;;15.87;100.00;96047.53;5057430;28;20211;-67
2023/07/26 05:55:05;;;;;;;4.78;2.60;;;;;;;15.95;100.00;96054.44;5056406;28;20232;-67
2023/07/26 05:57:33;;;;;;;2.95;1.73;;;;;;;16.03;100.00;96048.88;5050934;28;20205;-67
2023/07/26 06:00:00;;;;;;;4.22;1.90;;;;;;;15.73;100.00;96052.31;5058195;28;20569;-67
2023/07/26 06:02:27;;;;;;;3.88;2.35;;;;;;;15.79;100.00;96052.28;5050255;28;20197;-67
2023/07/26 06:04:53;;;;;;;2.97;1.80;;;;;;;15.76;100.00;96049.22;5054838;28;20209;-67
2023/07/26 06:07:20;;;;;;;3.88;2.40;;;;;;;15.81;100.00;96052.06;5049496;28;20749;-67
2023/07/26 06:09:46;;;;;;;4.20;2.42;;;;;;;15.58;100.00;96052.59;5054508;28;20552;-67
2023/07/26 06:12:13;;;;;;;4.28;2.25;;;;;;;15.55;100.00;96060.19;5055294;28;20532;-67
2023/07/26 06:14:41;;;;;;;3.72;1.83;;;;;;;15.82;100.00;96053.69;5054832;28;20209;-68
2023/07/26 06:17:07;;;;;;;3.00;1.90;;;;;;;15.54;100.00;96066.50;5049091;28;20228;-68
2023/07/26 06:19:34;;;;;;;3.30;1.63;;;;;;;15.69;100.00;96061.75;5056378;28;20212;-67
2023/07/26 06:22:00;;;;;;;6.07;2.22;;;;;;;15.53;100.00;96060.41;5049554;28;20231;-68
2023/07/26 06:24:27;;;;;;;3.08;1.92;;;;;;;15.56;100.00;96064.47;5053002;28;20205;-68
2023/07/26 06:26:54;;;;;;;3.08;1.90;;;;;;;15.48;100.00;96070.03;5054964;28;20366;-67
2023/07/26 06:29:20;;;;;;;4.20;2.35;;;;;;;15.74;100.00;96067.25;5057027;28;20213;-67
2023/07/26 06:31:49;;;;;;;6.18;1.83;;;;;;;16.10;100.00;96066.41;5056153;28;20739;-67
2023/07/26 06:34:15;;;;;;;3.17;2.40;;;;;;;15.84;100.00;96066.53;5056454;28;20493;-67
2023/07/26 06:36:42;;;;;;;5.38;2.00;;;;;;;16.15;100.00;96071.06;5055606;28;20496;-67
2023/07/26 06:39:08;;;;;;;6.35;2.05;;;;;;;15.82;100.00;96077.63;5056193;28;20231;-67
2023/07/26 06:41:35;;;;;;;2.55;1.38;;;;;;;15.85;100.00;96078.81;5055585;28;20228;-67
2023/07/26 06:44:01;;;;;;;4.15;1.70;;;;;;;15.83;100.00;96071.28;5056753;28;20462;-67
2023/07/26 06:46:28;;;;;;;2.90;1.90;;;;;;;15.76;100.00;96081.09;5056493;28;20211;-67
2023/07/26 06:48:55;;;;;;;3.85;1.65;;;;;;;15.99;100.00;96068.94;5052109;28;20215;-68
2023/07/26 06:51:22;;;;;;;3.33;1.48;;;;;;;15.80;100.00;96074.38;5051705;28;21048;-67
2023/07/26 06:53:48;;;;;;;4.38;2.33;;;;;;;15.92;100.00;96074.28;5055145;28;20201;-67
2023/07/26 06:56:15;;;;;;;3.55;1.92;;;;;;;15.76;100.00;96076.63;5056050;28;20231;-67
2023/07/26 06:58:41;;;;;;;2.00;1.67;;;;;;;15.84;100.00;96078.22;5054406;28;20696;-68
2023/07/26 07:01:16;;;;;;;2.53;1.60;;;;;;;16.40;100.00;96085.25;5055860;28;20792;-67
2023/07/26 07:03:42;;;;;;;3.13;1.80;;;;;;;16.26;100.00;96087.19;5055622;28;20227;-67
2023/07/26 07:06:10;;;;;;;2.33;1.33;;;;;;;16.18;100.00;96086.59;5055570;28;20205;-67
2023/07/26 07:08:37;;;;;;;3.53;1.42;;;;;;;16.11;100.00;96086.63;5053410;28;20470;-67
2023/07/26 07:11:03;;;;;;;3.17;1.80;;;;;;;16.34;100.00;96081.59;5056170;28;20293;-67
2023/07/26 07:13:30;;;;;;;2.17;1.85;;;;;;;16.49;100.00;96082.09;5055353;28;20212;-67
2023/07/26 07:15:56;;;;;;;3.13;1.80;;;;;;;16.33;100.00;96085.31;5055979;28;20240;-67
2023/07/26 07:18:23;;;;;;;3.20;1.42;;;;;;;16.53;100.00;96085.94;5054860;28;20201;-68
2023/07/26 07:20:55;;;;;;;2.17;1.42;;;;;;;17.10;100.00;96076.59;5055017;28;20482;-68
2023/07/26 07:23:23;;;;;;;2.17;1.38;;;;;;;16.75;100.00;96080.03;5050827;28;20200;-67
2023/07/26 07:25:49;;;;;;;2.88;1.60;;;;;;;16.68;100.00;96075.81;5055603;28;20203;-67
2023/07/26 07:28:16;;;;;;;2.00;1.30;;;;;;;16.73;100.00;96075.97;5054757;28;20220;-68
2023/07/26 07:30:43;;;;;;;6.10;1.77;;;;;;;16.74;100.00;96073.09;5055416;28;20741;-67
2023/07/26 07:33:10;;;;;;;2.53;1.73;;;;;;;16.82;100.00;96074.66;5053357;28;20206;-67
2023/07/26 07:35:36;;;;;;;3.25;1.30;;;;;;;17.07;100.00;96072.75;5051562;28;20978;-68
2023/07/26 07:38:03;;;;;;;1.15;1.05;;;;;;;16.56;100.00;96075.69;5054532;28;20204;-67
2023/07/26 07:40:30;;;;;;;7.80;1.60;;;;;;;16.91;100.00;96082.13;5054849;28;20228;-68
2023/07/26 07:42:57;;;;;;;3.33;1.63;;;;;;;16.84;100.00;96072.56;5054669;28;20479;-68
2023/07/26 07:45:23;;;;;;;2.03;1.50;;;;;;;16.98;100.00;96079.41;5054951;28;20226;-68
2023/07/26 07:47:50;;;;;;;1.42;1.15;;;;;;;16.80;100.00;96074.03;5054522;28;20201;-67
2023/07/26 07:50:16;;;;;;;1.88;1.77;;;;;;;16.96;100.00;96084.16;5054766;28;20582;-68
2023/07/26 07:52:44;;;;;;;2.65;1.40;;;;;;;17.02;100.00;96077.91;5055055;28;20205;-68
2023/07/26 07:55:10;;;;;;;1.75;1.00;;;;;;;16.78;100.00;96089.44;5055230;28;20208;-68
2023/07/26 07:57:38;;;;;;;1.85;1.10;;;;;;;17.31;100.00;96086.88;5054100;28;20204;-68
2023/07/26 08:00:08;;;;;;;1.38;0.88;;;;;;;17.23;100.00;96088.97;5054599;28;20307;-68
2023/07/26 08:02:35;;;;;;;2.72;1.08;;;;;;;17.31;100.00;96096.69;5055137;28;20565;-68
2023/07/26 08:05:01;;;;;;;3.28;1.65;;;;;;;17.04;100.00;96092.63;5055005;28;20208;-68
2023/07/26 08:07:28;;;;;;;2.65;1.75;;;;;;;17.00;100.00;96094.13;5053739;28;20858;-67
2023/07/26 08:13:36;;;;;;;1.10;0.98;;;;;;;17.26;100.00;96094.72;5053373;28;21370;-68
2023/07/26 08:16:03;;;;;;;1.02;0.93;;;;;;;16.81;100.00;96100.44;5052855;28;20208;-67
2023/07/26 08:18:30;;;;;;;0.80;0.80;;;;;;;16.72;100.00;96092.97;5053239;28;20201;-68
2023/07/26 08:20:56;;;;;;;1.13;0.95;;;;;;;16.66;100.00;96101.81;5052981;28;20231;-68
2023/07/26 08:23:23;;;;;;;1.40;1.17;;;;;;;16.81;100.00;96100.44;5053004;28;20231;-68
2023/07/26 08:25:49;;;;;;;5.05;1.60;;;;;;;16.91;100.00;96089.31;5053045;28;20212;-68
2023/07/26 08:28:15;;;;;;;0.68;0.68;;;;;;;16.87;100.00;96088.13;5052507;28;20201;-68
2023/07/26 08:30:43;;;;;;;1.80;1.40;;;;;;;17.32;100.00;96088.50;5052439;28;20731;-68
2023/07/26 08:33:10;;;;;;;2.47;1.45;;;;;;;17.18;100.00;96092.31;5053378;28;20203;-68
2023/07/26 08:35:36;;;;;;;3.15;1.17;;;;;;;17.44;100.00;96093.91;5052139;28;20204;-68
2023/07/26 08:38:03;;;;;;;2.15;1.58;;;;;;;17.82;100.00;96090.75;5051975;28;20197;-68
2023/07/26 08:40:30;;;;;;;2.60;1.73;;;;;;;18.10;100.00;96099.00;5052079;28;20228;-68
2023/07/26 08:42:57;;;;;;;3.45;1.27;;;;;;;18.00;100.00;96089.91;5053020;28;20221;-68
2023/07/26 08:45:24;;;;;;;1.80;1.27;;;;;;;18.31;100.00;96087.03;5052637;28;20274;-68
2023/07/26 08:47:53;;;;;;;2.90;1.40;;;;;;;18.45;100.00;96095.41;5051644;28;20210;-68
2023/07/26 08:50:20;;;;;;;1.45;0.98;;;;;;;18.55;100.00;96086.84;5052826;28;20232;-68
2023/07/26 08:52:47;;;;;;;1.50;1.30;;;;;;;18.81;100.00;96095.22;5051678;28;20231;-68
2023/07/26 08:55:15;;;;;;;2.08;1.15;;;;;;;19.01;100.00;96093.84;5052149;28;20218;-68
2023/07/26 08:57:43;;;;;;;7.30;1.48;;;;;;;19.02;99.71;96090.13;5052040;28;20205;-68
2023/07/26 09:00:11;;;;;;;3.08;1.30;;;;;;;18.73;96.59;96090.22;5052485;28;20217;-68
2023/07/26 09:02:41;;;;;;;2.03;1.10;;;;;;;18.58;94.22;96087.22;5051625;28;20260;-68
2023/07/26 09:05:10;;;;;;;0.70;0.70;;;;;;;18.71;97.51;96092.34;5051608;28;20543;-68
2023/07/26 09:07:38;;;;;;;1.75;0.95;;;;;;;18.40;99.50;96095.28;5050946;28;20200;-67
2023/07/26 09:10:05;;;;;;;1.70;1.33;;;;;;;18.75;97.31;96088.16;5051956;28;20232;-68
2023/07/26 09:12:31;;;;;;;2.58;1.55;;;;;;;18.26;97.57;96097.56;5051725;28;20299;-68
2023/07/26 09:14:59;;;;;;;2.40;1.00;;;;;;;18.26;100.00;96092.22;5051755;28;20200;-68
2023/07/26 09:17:37;;;;;;;2.78;1.27;;;;;;;19.00;94.57;96092.25;5050827;28;20599;-68
2023/07/26 09:20:04;;;;;;;1.58;1.45;;;;;;;19.19;98.05;96084.94;5051831;28;20713;-68
2023/07/26 09:22:32;;;;;;;1.45;0.90;;;;;;;19.45;96.38;96084.44;5051764;28;20225;-68
2023/07/26 09:24:58;;;;;;;1.88;1.38;;;;;;;19.32;98.05;96074.84;5038676;28;20303;-68
2023/07/26 09:27:26;;;;;;;1.40;1.00;;;;;;;20.16;100.00;96083.78;5037441;28;20213;-68
2023/07/26 09:29:56;;;;;;;1.88;1.30;;;;;;;20.53;91.75;96072.44;5038492;28;20300;-68
2023/07/26 09:32:29;;;;;;;4.20;1.20;;;;;;;21.00;93.97;96069.22;5038319;28;20677;-68
2023/07/26 09:34:59;;;;;;;0.93;0.75;;;;;;;19.92;89.28;96082.28;5038400;28;20228;-67
2023/07/26 09:37:26;;;;;;;2.05;1.23;;;;;;;19.75;90.42;96075.19;5037348;28;20284;-68
2023/07/26 09:39:54;;;;;;;2.13;1.35;;;;;;;19.40;92.19;96068.28;5038279;28;20205;-68
2023/07/26 09:42:21;;;;;;;2.10;1.40;;;;;;;19.11;93.26;96070.06;5037769;28;20225;-68
2023/07/26 09:44:48;;;;;;;2.63;1.30;;;;;;;18.84;93.85;96070.75;5037897;28;20979;-68
2023/07/26 09:47:15;;;;;;;2.67;1.40;;;;;;;18.79;93.40;96070.63;5037507;28;20201;-68
2023/07/26 09:49:50;;;;;;;1.35;0.93;;;;;;;18.56;97.50;96081.28;5038103;28;20205;-68
2023/07/26 09:52:20;;;;;;;2.55;0.82;;;;;;;17.89;97.96;96082.66;5037894;28;20200;-68
2023/07/26 09:54:47;;;;;;;1.55;0.80;;;;;;;17.04;100.00;96100.63;5038236;28;20380;-68
2023/07/26 09:57:17;;;;;;;1.83;0.80;;;;;;;16.95;100.00;96106.47;5037345;28;20198;-68
2023/07/26 09:59:45;;;;;;;2.42;0.98;;;;;;;16.77;100.00;96103.75;5037964;28;20209;-68
2023/07/26 10:02:13;;;;;;;1.40;1.30;;;;;;;16.93;100.00;96095.22;5038459;28;20405;-68
2023/07/26 10:04:48;;;;;;;2.50;1.15;;;;;;;17.41;100.00;96092.50;5038052;28;20201;-68
2023/07/26 10:07:15;;;;;;;3.05;1.60;;;;;;;17.24;100.00;96096.75;5036507;28;20579;-67
2023/07/26 10:09:44;;;;;;;0.98;0.90;;;;;;;17.61;100.00;96087.75;5037838;28;20200;-67
2023/07/26 10:12:11;;;;;;;11.55;1.23;;;;;;;17.63;100.00;96099.00;5036853;28;20653;-68
2023/07/26 10:14:40;;;;;;;1.25;1.00;;;;;;;17.50;100.00;96101.81;5036042;28;20737;-68
2023/07/26 10:17:07;;;;;;;2.55;1.42;;;;;;;17.29;100.00;96102.25;5037099;28;20204;-67
2023/07/26 10:19:36;;;;;;;2.05;1.38;;;;;;;17.22;100.00;96103.31;5038577;28;20197;-68
2023/07/26 10:22:03;;;;;;;3.00;1.45;;;;;;;17.23;100.00;96113.78;5036957;28;20250;-67
2023/07/26 10:24:31;;;;;;;1.35;1.08;;;;;;;16.95;100.00;96112.59;5033596;28;20228;-68
2023/07/26 10:26:59;;;;;;;4.35;1.65;;;;;;;17.06;100.00;96119.06;5035840;28;20212;-68
2023/07/26 10:29:26;;;;;;;1.67;1.13;;;;;;;17.00;100.00;96126.06;5036111;28;20582;-67
2023/07/26 10:32:02;;;;;;;1.42;1.33;;;;;;;17.08;100.00;96143.59;5035551;28;20221;-67
2023/07/26 10:34:29;;;;;;;1.00;0.90;;;;;;;16.32;100.00;96134.19;5036136;28;20200;-67
2023/07/26 10:36:56;;;;;;;0.90;0.60;;;;;;;16.46;100.00;96126.94;5034235;28;20205;-67
2023/07/26 10:39:29;;;;;;;0.57;0.57;;;;;;;16.96;100.00;96118.75;5036356;28;20205;-67
2023/07/26 10:41:56;;;;;;;5.20;0.77;;;;;;;16.93;100.00;96121.81;5036078;28;20224;-67
2023/07/26 10:44:23;;;;;;;1.23;0.65;;;;;;;16.88;100.00;96127.81;5036022;28;20197;-68
2023/07/26 10:46:51;;;;;;;1.00;0.77;;;;;;;17.13;100.00;96121.44;5035614;28;20216;-67
2023/07/26 10:49:24;;;;;;;1.15;1.05;;;;;;;17.01;100.00;96118.91;5035322;28;20201;-68
2023/07/26 10:51:56;;;;;;;4.43;1.13;;;;;;;17.11;100.00;96110.19;5035520;28;20282;-68
2023/07/26 10:54:34;;;;;;;0.68;0.68;;;;;;;17.24;100.00;96101.25;5036033;28;20197;-67
2023/07/26 10:57:15;;;;;;;1.33;0.95;;;;;;;17.27;100.00;96093.69;5034549;28;20197;-67
2023/07/26 10:59:54;;;;;;;3.13;0.85;;;;;;;17.52;100.00;96093.59;5035563;28;20205;-67
2023/07/26 11:02:43;;;;;;;0.50;0.50;;;;;;;17.50;100.00;96101.81;5036036;28;20242;-67
2023/07/26 11:05:18;;;;;;;1.52;0.85;;;;;;;17.05;100.00;96109.44;5035953;28;20205;-67
2023/07/26 11:08:04;;;;;;;0.93;0.73;;;;;;;17.50;100.00;96106.31;5034813;28;20288;-67
2023/07/26 11:10:32;;;;;;;2.17;1.13;;;;;;;17.29;100.00;96112.91;5035546;28;20225;-67
2023/07/26 11:13:07;;;;;;;5.82;1.23;;;;;;;17.64;100.00;96110.47;5035153;28;20209;-68
2023/07/26 11:15:35;;;;;;;1.20;1.10;;;;;;;17.39;100.00;96110.53;5036239;28;20287;-67
2023/07/26 11:18:02;;;;;;;2.10;1.45;;;;;;;17.30;100.00;96105.75;5034173;28;20209;-67
2023/07/26 11:20:29;;;;;;;1.85;0.90;;;;;;;17.73;100.00;96107.25;5035685;28;20279;-68
2023/07/26 11:22:56;;;;;;;1.20;0.80;;;;;;;17.42;100.00;96099.44;5034958;28;20794;-68
2023/07/26 11:25:23;;;;;;;0.60;0.50;;;;;;;17.26;100.00;96102.69;5035621;28;20212;-68
2023/07/26 11:27:50;;;;;;;6.05;0.75;;;;;;;17.23;100.00;96099.63;5034146;28;21220;-67
2023/07/26 11:30:17;;;;;;;0.80;0.60;;;;;;;17.40;100.00;96104.19;5035887;28;20221;-68